[ARRIVIED/AT GATE] Connecting Germany to Canada! @EDDF - 260830ZMAR20

Connecting EDDF to CYYZ

*Departing Airport: EDDF
*Arrival Airport: CYYZ
*Flight time: 8.5 hours
*Wheels off departure time: 2020-03-26T08:30:00Z

  • Aircraft and Livery: We will fly the A359 in the Lufthansa Livery
    image
    Route: EDDF DF139 DF146 ODAGA KUSOM GUBAX RAVKI DITAM OBOKA 5108N/560E TORNU BREDA RAVLO BODSO SUPEL 5315N/026E OTBED NISBI DOPEK ARTIX MOGMO MAMUL ADELU BOLBI SONEX PENIL BABRA GIGTO UNDUX SOPAX RAMOX OGTUG BAGSO DEVOL DOGAL 5400N/2000W 5400N/3000W 5400N/4000W 5300N/5000W RIKAL YAY YNA 4950N/6423W YYY 4746N/6935W YQB TAMKO KANUR TUKIR LIBEM IGSAP UDNOX 4419N/7809W RAGID VIDRO TOVOP DENPI MIRUG MITUX OMTIP 4356N/7948W 4358N/7951W PILKI CYYZ

  • Time of Departure: 2020-03-26T08:30:00Z

  • Pushback: 15 minutes before

  • Server: Expert


Additional Information:

Departing Airport METAR
METAR text: EDDF 260320Z 04010KT CAVOK 02/M08 Q1020 NOSIG
Conditions at: EDDF (FRANKFURT MAIN A, DE) observed 0320 UTC 26 March 2020
Temperature: 2.0°C (36°F)
Dewpoint: -8.0°C (18°F) [RH = 47%]
Pressure (altimeter): 30.12 inches Hg (1020.0 mb)
Winds: from the NE (40 degrees) at 12 MPH (10 knots; 5.1 m/s)
Visibility: 6 or more miles (10+ km)
Ceiling: ceiling and visibility are OK
Clouds: unknown
Weather: no significant weather observed at this time
Arrival Airport METAR
METAR text: CYYZ 260307Z VRB02KT 15SM FEW220 02/00 A2994 RMK CI1 SLP144
Conditions at: CYYZ (TORONTO/PEARSON , ON, CA) observed 0307 UTC 26 March 2020
Temperature: 2.0°C (36°F)
Dewpoint: 0.0°C (32°F) [RH = 87%]
Pressure (altimeter): 29.94 inches Hg (1014.0 mb)
[Sea-level pressure: 1014.4 mb]
Winds: variable direction winds at 2 MPH (2 knots; 1.0 m/s)
Visibility: 15 miles (24 km)
Ceiling: at least 12,000 feet AGL
Clouds: few clouds at 22000 feet AGL
Weather: no significant weather observed at this time
Departing Runway

07C

Arrival Runway: IFATC will decide

Cruise speed: M.83
Please consider joining!

All infinite flight photos in this post was taken by me

2 Likes

@cptlogue would you like to join?

Unfortunately, I’m heading to Vancouver out of London.

1 Like

Hey, could you please correct the title?

1 Like

Oh ok I remember your post now

Isn’t it correct

It’s not. I’m going to let you try correct it yourself. Please review this as it is your 3rd group flight and each one has had an incorrect title.

1 Like

I think I corrected it

You did, good job.

1 Like

Thank you, lol

In about 3 hours!

New Signup!
@Joshua_Martel

I would like to join if thats fine

1 Like

Yeah! I’ll reply with your gate shortly

New signup!
@Captian_Christian

thanks
ill be there

1 Like

@Cpt_Zorndy are you coming then?

@Cpt_Zorndy if you want to come just reply or mention me here

Are you coming @Cpt_Zorndy? I’ll give you a gate if yes

@Captian_Christian your gate is Terminal 1 Gate A66